createdAt,value
2023-04-13T00:01:11.693Z,5.80
2023-04-13T00:03:39.608Z,4.43
2023-04-13T00:06:11.100Z,5.73
2023-04-13T00:08:38.873Z,3.60
2023-04-13T00:11:07.888Z,3.93
2023-04-13T00:13:41.527Z,4.10
2023-04-13T00:16:13.924Z,3.17
2023-04-13T00:18:41.008Z,2.27
2023-04-13T00:21:08.416Z,4.07
2023-04-13T00:23:36.389Z,2.87
2023-04-13T00:26:03.609Z,4.53
2023-04-13T00:28:30.621Z,2.70
2023-04-13T00:30:59.345Z,3.97
2023-04-13T00:33:26.700Z,2.47
2023-04-13T00:35:53.672Z,2.30
2023-04-13T00:38:20.554Z,4.87
2023-04-13T00:40:47.567Z,2.77
2023-04-13T00:43:15.036Z,5.07
2023-04-13T00:45:43.568Z,3.50
2023-04-13T00:48:11.096Z,4.43
2023-04-13T00:50:39.779Z,4.63
2023-04-13T00:53:10.954Z,2.80
2023-04-13T00:55:42.145Z,3.60
2023-04-13T00:58:09.747Z,2.60
2023-04-13T01:00:43.219Z,2.67
2023-04-13T01:03:11.506Z,2.13
2023-04-13T01:05:51.874Z,2.23
2023-04-13T01:08:36.968Z,1.70
2023-04-13T01:11:19.904Z,4.17
2023-04-13T01:13:56.514Z,2.70
2023-04-13T01:16:33.155Z,2.60
2023-04-13T01:21:54.566Z,4.47
2023-04-13T01:24:41.916Z,2.87
2023-04-13T01:27:20.636Z,4.30
2023-04-13T01:29:50.818Z,4.70
2023-04-13T01:32:18.192Z,4.80
2023-04-13T01:34:45.749Z,2.70
2023-04-13T01:37:13.084Z,2.30
2023-04-13T01:39:41.147Z,5.73
2023-04-13T01:42:19.259Z,2.50
2023-04-13T01:44:49.390Z,5.07
2023-04-13T01:47:20.633Z,2.80
2023-04-13T01:50:25.743Z,1.67
2023-04-13T01:53:08.237Z,2.73
2023-04-13T01:55:42.052Z,5.13
2023-04-13T01:58:13.192Z,2.67
2023-04-13T02:00:41.894Z,6.40
2023-04-13T02:03:13.359Z,5.50
2023-04-13T02:05:40.665Z,3.13
2023-04-13T02:08:09.302Z,2.73
2023-04-13T02:10:42.942Z,2.67
2023-04-13T02:13:10.268Z,3.93
2023-04-13T02:15:38.842Z,4.10
2023-04-13T02:18:07.329Z,3.33
2023-04-13T02:20:45.545Z,5.80
2023-04-13T02:23:15.130Z,5.40
2023-04-13T02:25:47.202Z,4.73
2023-04-13T02:28:17.842Z,4.13
2023-04-13T02:30:47.088Z,6.73
2023-04-13T02:33:14.179Z,4.20
2023-04-13T02:35:41.338Z,3.33
2023-04-13T02:38:10.722Z,7.77
2023-04-13T02:40:38.933Z,4.97
2023-04-13T02:43:29.484Z,6.57
2023-04-13T02:45:58.497Z,4.67
2023-04-13T02:48:30.684Z,3.83
2023-04-13T02:50:57.686Z,3.60
2023-04-13T02:53:29.804Z,3.67
2023-04-13T02:56:02.307Z,3.93
2023-04-13T02:58:31.752Z,4.07
2023-04-13T03:01:02.634Z,5.43
2023-04-13T03:03:30.604Z,7.67
2023-04-13T03:05:58.771Z,6.33
2023-04-13T03:08:37.280Z,8.23
2023-04-13T03:11:11.275Z,8.87
2023-04-13T03:13:47.197Z,11.03
2023-04-13T03:16:17.727Z,9.80
2023-04-13T03:18:45.815Z,8.03
2023-04-13T03:21:14.224Z,2.83
2023-04-13T03:23:49.605Z,3.37
2023-04-13T03:26:17.945Z,2.60
2023-04-13T03:28:44.890Z,3.13
2023-04-13T03:31:12.066Z,4.67
2023-04-13T03:33:39.232Z,4.83
2023-04-13T03:36:08.527Z,11.70
2023-04-13T03:38:37.496Z,7.00
2023-04-13T03:41:04.762Z,6.40
2023-04-13T03:43:33.383Z,5.77
2023-04-13T03:46:07.955Z,13.13
2023-04-13T03:48:35.940Z,9.97
2023-04-13T03:51:05.760Z,6.47
2023-04-13T03:53:44.702Z,7.10
2023-04-13T03:56:11.803Z,4.40
2023-04-13T03:58:39.596Z,5.83
2023-04-13T04:01:08.129Z,9.80
2023-04-13T04:03:44.369Z,5.10
2023-04-13T04:06:11.954Z,4.37
2023-04-13T04:08:43.910Z,5.07
2023-04-13T04:11:22.584Z,3.17
2023-04-13T04:13:49.694Z,9.03
2023-04-13T04:16:16.755Z,5.33
2023-04-13T04:18:49.709Z,5.00
2023-04-13T04:21:21.832Z,6.00
2023-04-13T04:23:49.311Z,8.03
2023-04-13T04:26:17.861Z,3.50
2023-04-13T04:29:02.554Z,6.33
2023-04-13T04:31:36.755Z,9.37
2023-04-13T04:34:06.751Z,7.03
2023-04-13T04:36:36.385Z,11.13
2023-04-13T04:39:04.757Z,10.90
2023-04-13T04:41:39.743Z,7.43
2023-04-13T04:44:09.138Z,6.20
2023-04-13T04:46:41.744Z,6.07
2023-04-13T04:49:14.052Z,4.50
2023-04-13T04:51:41.257Z,6.80
2023-04-13T04:54:09.544Z,15.07
2023-04-13T04:56:38.300Z,20.77
2023-04-13T04:59:05.806Z,19.57
2023-04-13T05:01:43.504Z,12.43
2023-04-13T05:04:13.118Z,11.23
2023-04-13T05:06:43.321Z,6.93
2023-04-13T05:09:15.216Z,4.57
2023-04-13T05:11:48.018Z,9.13
2023-04-13T05:14:16.131Z,8.67
2023-04-13T05:16:45.747Z,6.70
2023-04-13T05:19:37.111Z,7.80
2023-04-13T05:22:13.669Z,12.37
2023-04-13T05:24:47.322Z,11.83
2023-04-13T05:27:16.113Z,9.50
2023-04-13T05:29:44.556Z,12.90
2023-04-13T05:32:15.620Z,7.57
2023-04-13T05:34:43.399Z,14.40
2023-04-13T05:37:20.372Z,9.33
2023-04-13T05:39:47.506Z,9.10
2023-04-13T05:42:19.104Z,7.27
2023-04-13T05:44:47.199Z,8.10
2023-04-13T05:47:18.347Z,5.23
2023-04-13T05:49:47.077Z,6.77
2023-04-13T05:52:15.665Z,11.00
2023-04-13T05:54:46.383Z,8.60
2023-04-13T05:57:13.348Z,11.80
2023-04-13T05:59:46.058Z,10.57
2023-04-13T06:02:15.259Z,8.47
2023-04-13T06:04:43.307Z,13.70
2023-04-13T06:07:11.119Z,9.43
2023-04-13T06:09:40.141Z,12.33
2023-04-13T06:12:07.972Z,11.07
2023-04-13T06:14:35.011Z,10.13
2023-04-13T06:17:01.970Z,13.07
2023-04-13T06:19:29.298Z,6.97
2023-04-13T06:21:56.373Z,6.47
2023-04-13T06:24:23.665Z,4.90
2023-04-13T06:26:51.340Z,3.73
2023-04-13T06:29:18.602Z,4.70
2023-04-13T06:31:56.588Z,3.37
2023-04-13T06:34:23.594Z,5.60
2023-04-13T06:36:50.602Z,4.40
2023-04-13T06:39:19.591Z,5.40
2023-04-13T06:41:55.006Z,4.50
2023-04-13T06:44:42.992Z,3.53
2023-04-13T06:47:10.553Z,5.27
2023-04-13T06:49:37.594Z,2.60
2023-04-13T06:52:05.216Z,3.90
2023-04-13T06:54:32.343Z,3.87
2023-04-13T06:57:05.470Z,3.87
2023-04-13T06:59:33.196Z,5.90
2023-04-13T07:02:00.313Z,3.10
2023-04-13T07:04:29.702Z,3.87
2023-04-13T07:06:58.889Z,4.57
2023-04-13T07:09:26.226Z,6.97
2023-04-13T07:11:53.410Z,3.37
2023-04-13T07:14:21.185Z,4.90
2023-04-13T07:16:48.642Z,5.13
2023-04-13T07:19:17.000Z,3.83
2023-04-13T07:21:44.114Z,5.73
2023-04-13T07:24:11.238Z,7.53
2023-04-13T07:26:41.920Z,7.10
2023-04-13T07:29:13.503Z,5.57
2023-04-13T07:31:44.642Z,8.27
2023-04-13T07:34:12.348Z,8.20
2023-04-13T07:36:44.372Z,4.97
2023-04-13T07:39:15.064Z,6.27
2023-04-13T07:41:46.571Z,3.03
2023-04-13T07:44:17.890Z,6.23
2023-04-13T07:46:47.480Z,6.50
2023-04-13T07:49:15.022Z,5.53
2023-04-13T07:51:43.094Z,7.67
2023-04-13T07:54:10.573Z,8.27
2023-04-13T07:56:37.892Z,4.90
2023-04-13T07:59:07.112Z,7.37
2023-04-13T08:01:35.618Z,8.87
2023-04-13T08:04:03.704Z,8.57
2023-04-13T08:06:32.233Z,4.00
2023-04-13T08:09:01.680Z,3.93
2023-04-13T08:11:28.701Z,6.10
2023-04-13T08:14:02.627Z,5.23
2023-04-13T08:16:34.391Z,7.07
2023-04-13T08:19:04.250Z,4.43
2023-04-13T08:21:37.455Z,3.43
2023-04-13T08:24:08.031Z,6.17
2023-04-13T08:26:35.245Z,3.00
2023-04-13T08:29:02.413Z,6.20
2023-04-13T08:31:29.734Z,3.37
2023-04-13T08:34:01.532Z,5.30
2023-04-13T08:36:31.906Z,18.47
2023-04-13T08:39:06.049Z,8.30
2023-04-13T08:41:41.935Z,4.57
2023-04-13T08:44:13.575Z,23.47
2023-04-13T08:46:47.382Z,4.77
2023-04-13T08:49:18.755Z,5.20
2023-04-13T08:52:11.046Z,3.40
2023-04-13T08:54:40.492Z,1.83
2023-04-13T08:57:16.409Z,1.87
2023-04-13T08:59:44.918Z,4.20
2023-04-13T09:02:15.162Z,2.13
2023-04-13T09:04:56.003Z,1.53
2023-04-13T09:07:29.602Z,3.07
2023-04-13T09:10:01.687Z,3.37
2023-04-13T09:12:33.588Z,5.63
2023-04-13T09:15:00.774Z,8.27
2023-04-13T09:17:32.582Z,2.67
2023-04-13T09:20:18.388Z,3.97
2023-04-13T09:22:45.821Z,6.67
2023-04-13T09:25:29.365Z,3.73
2023-04-13T09:27:57.257Z,4.20
2023-04-13T09:30:29.937Z,2.63
2023-04-13T09:33:06.041Z,4.63
2023-04-13T09:35:34.390Z,4.03
2023-04-13T09:38:01.506Z,2.00
2023-04-13T09:40:29.423Z,1.47
2023-04-13T09:43:04.732Z,2.77
2023-04-13T09:45:36.414Z,4.60
2023-04-13T09:48:05.407Z,1.75
2023-04-13T09:50:34.868Z,3.40
2023-04-13T09:53:06.822Z,4.50
2023-04-13T09:55:37.192Z,3.38
2023-04-13T09:58:17.803Z,3.17
2023-04-13T10:00:46.652Z,7.33
2023-04-13T10:03:16.092Z,3.50
2023-04-13T10:05:58.968Z,2.07
2023-04-13T10:08:37.580Z,2.37
2023-04-13T10:11:12.819Z,3.20
2023-04-13T10:14:02.783Z,3.90
2023-04-13T10:17:05.647Z,2.33
2023-04-13T10:19:56.463Z,3.40
2023-04-13T10:22:25.023Z,4.33
2023-04-13T10:24:53.091Z,3.30
2023-04-13T10:29:50.077Z,1.60
2023-04-13T10:32:35.327Z,3.83
2023-04-13T10:35:11.844Z,3.07
2023-04-13T10:37:40.702Z,2.67
2023-04-13T10:40:10.457Z,1.63
2023-04-13T10:45:24.194Z,1.60
2023-04-13T10:47:51.584Z,7.07
2023-04-13T10:50:23.846Z,3.45
2023-04-13T10:53:07.473Z,5.32
2023-04-13T10:55:35.408Z,3.17
2023-04-13T10:58:14.567Z,3.13
2023-04-13T11:00:47.080Z,4.30
2023-04-13T11:03:17.015Z,1.70
2023-04-13T11:05:47.225Z,1.50
2023-04-13T11:08:21.665Z,3.97
2023-04-13T11:10:56.522Z,2.97
2023-04-13T11:13:31.964Z,4.97
2023-04-13T11:16:07.049Z,1.42
2023-04-13T11:18:34.136Z,3.15
2023-04-13T11:21:06.098Z,3.42
2023-04-13T11:23:36.305Z,1.30
2023-04-13T11:26:04.785Z,2.50
2023-04-13T11:28:43.628Z,2.75
2023-04-13T11:31:13.905Z,2.67
2023-04-13T11:33:41.163Z,6.47
2023-04-13T11:36:11.977Z,1.88
2023-04-13T11:38:43.083Z,4.57
2023-04-13T11:43:42.021Z,2.20
2023-04-13T11:46:13.717Z,4.38
2023-04-13T11:48:43.613Z,1.23
2023-04-13T11:51:11.559Z,2.42
2023-04-13T11:53:40.410Z,2.35
2023-04-13T11:56:09.936Z,2.50
2023-04-13T11:58:39.562Z,1.80
2023-04-13T12:01:25.121Z,1.77
2023-04-13T12:04:04.690Z,2.47
2023-04-13T12:06:45.947Z,2.25
2023-04-13T12:09:17.636Z,3.42
2023-04-13T12:11:52.135Z,2.00
2023-04-13T12:19:28.292Z,3.17
2023-04-13T12:21:58.091Z,1.40
2023-04-13T12:24:38.150Z,1.30
2023-04-13T12:29:40.551Z,4.18
2023-04-13T12:32:16.441Z,5.10
2023-04-13T12:34:44.866Z,4.10
2023-04-13T12:37:12.351Z,1.85
2023-04-13T12:39:39.576Z,2.92
2023-04-13T12:42:06.757Z,1.98
2023-04-13T12:44:34.558Z,1.20
2023-04-13T12:47:02.564Z,1.20
2023-04-13T12:49:31.145Z,0.95
2023-04-13T12:51:58.158Z,2.47
2023-04-13T12:54:30.843Z,1.15
2023-04-13T12:57:01.456Z,1.95
2023-04-13T12:59:31.264Z,2.42
2023-04-13T13:02:03.099Z,1.80
2023-04-13T13:04:33.025Z,1.35
2023-04-13T13:07:02.310Z,1.67
2023-04-13T13:09:31.204Z,6.00
2023-04-13T13:12:03.794Z,1.10
2023-04-13T13:14:33.262Z,3.08
2023-04-13T13:17:01.310Z,2.40
2023-04-13T13:19:33.658Z,1.00
2023-04-13T13:22:01.643Z,2.45
2023-04-13T13:24:29.111Z,1.30
2023-04-13T13:29:28.050Z,1.35
2023-04-13T13:31:57.843Z,1.23
2023-04-13T13:34:24.974Z,1.52
2023-04-13T13:36:51.893Z,2.53
2023-04-13T13:39:21.079Z,1.40
2023-04-13T13:41:48.281Z,1.27
2023-04-13T13:44:16.203Z,1.95
2023-04-13T13:46:43.676Z,1.10
2023-04-13T13:49:11.928Z,1.83
2023-04-13T13:51:51.387Z,1.30
2023-04-13T13:54:22.959Z,7.40
2023-04-13T13:56:50.056Z,1.15
2023-04-13T13:59:16.993Z,1.63
2023-04-13T14:01:44.777Z,1.15
2023-04-13T14:04:13.291Z,1.42
2023-04-13T14:06:40.442Z,4.03
2023-04-13T14:09:07.791Z,2.13
2023-04-13T14:11:34.947Z,1.60
2023-04-13T14:14:11.095Z,2.92
2023-04-13T14:16:48.619Z,1.30
2023-04-13T14:19:15.687Z,5.65
2023-04-13T14:21:42.807Z,6.55
2023-04-13T14:24:09.914Z,2.88
2023-04-13T14:26:38.311Z,1.48
2023-04-13T14:29:09.015Z,1.65
2023-04-13T14:31:39.113Z,3.70
2023-04-13T14:34:06.266Z,2.60
2023-04-13T14:36:33.251Z,1.70
2023-04-13T14:39:00.884Z,3.92
2023-04-13T14:41:28.061Z,1.00
2023-04-13T14:43:55.028Z,1.38
2023-04-13T14:46:22.393Z,1.75
2023-04-13T14:48:49.578Z,3.33
2023-04-13T14:51:17.542Z,1.70
2023-04-13T14:53:44.694Z,3.45
2023-04-13T14:56:11.775Z,4.50
2023-04-13T14:58:38.882Z,1.73
2023-04-13T15:01:17.602Z,3.03
2023-04-13T15:03:47.821Z,3.40
2023-04-13T15:06:17.655Z,3.95
2023-04-13T15:08:45.428Z,1.48
2023-04-13T15:11:12.463Z,3.28
2023-04-13T15:13:39.534Z,4.00
2023-04-13T15:16:07.958Z,2.72
2023-04-13T15:18:35.506Z,2.85
2023-04-13T15:21:04.114Z,2.33
2023-04-13T15:23:32.504Z,2.25
2023-04-13T15:26:01.226Z,2.55
2023-04-13T15:28:28.305Z,2.05
2023-04-13T15:30:55.351Z,2.17
2023-04-13T15:33:22.470Z,1.60
2023-04-13T15:35:51.954Z,2.60
2023-04-13T15:38:18.972Z,1.40
2023-04-13T15:40:47.274Z,3.35
2023-04-13T15:43:14.360Z,3.08
2023-04-13T15:45:41.407Z,3.85
2023-04-13T15:48:08.560Z,3.50
2023-04-13T15:50:35.712Z,0.93
2023-04-13T15:53:02.766Z,1.20
2023-04-13T15:55:29.877Z,1.40
2023-04-13T15:57:57.368Z,2.25
2023-04-13T16:00:26.213Z,1.33
2023-04-13T16:02:53.472Z,0.80
2023-04-13T16:05:21.087Z,5.05
2023-04-13T16:07:48.489Z,6.22
2023-04-13T16:10:16.893Z,1.70
2023-04-13T16:12:44.807Z,2.30
2023-04-13T16:15:12.692Z,0.95
2023-04-13T16:17:43.876Z,4.78
2023-04-13T16:20:14.335Z,2.00
2023-04-13T16:22:43.468Z,2.92
2023-04-13T16:25:11.765Z,2.83
2023-04-13T16:27:39.852Z,4.05
2023-04-13T16:30:13.365Z,3.58
2023-04-13T16:32:47.100Z,3.45
2023-04-13T16:35:14.336Z,3.45
2023-04-13T16:37:42.906Z,1.55
2023-04-13T16:40:11.479Z,1.42
2023-04-13T16:42:40.469Z,2.88
2023-04-13T16:45:14.385Z,3.35
2023-04-13T16:47:42.573Z,6.15
2023-04-13T16:50:13.738Z,3.10
2023-04-13T16:52:40.949Z,3.42
2023-04-13T16:55:11.575Z,3.05
2023-04-13T16:57:38.645Z,1.48
2023-04-13T17:00:15.591Z,1.90
2023-04-13T17:02:43.120Z,3.25
2023-04-13T17:05:11.656Z,3.28
2023-04-13T17:07:40.588Z,4.95
2023-04-13T17:10:09.220Z,6.13
2023-04-13T17:12:39.216Z,7.18
2023-04-13T17:15:28.809Z,5.43
2023-04-13T17:17:56.064Z,3.17
2023-04-13T17:20:23.329Z,6.60
2023-04-13T17:22:51.276Z,2.40
2023-04-13T17:25:20.580Z,8.20
2023-04-13T17:27:48.206Z,3.30
2023-04-13T17:30:15.330Z,10.73
2023-04-13T17:32:42.905Z,5.10
2023-04-13T17:35:10.591Z,3.80
2023-04-13T17:37:37.725Z,7.83
2023-04-13T17:40:06.911Z,6.10
2023-04-13T17:42:33.959Z,7.27
2023-04-13T17:45:01.736Z,7.80
2023-04-13T17:47:29.781Z,15.67
2023-04-13T17:49:56.861Z,11.97
2023-04-13T17:52:24.908Z,16.00
2023-04-13T17:54:51.902Z,10.33
2023-04-13T17:57:19.402Z,9.73
2023-04-13T17:59:47.294Z,5.73
2023-04-13T18:02:14.961Z,5.80
2023-04-13T18:04:42.622Z,5.40
2023-04-13T18:07:09.673Z,7.40
2023-04-13T18:09:57.680Z,11.87
2023-04-13T18:12:44.605Z,5.60
2023-04-13T18:15:13.310Z,4.50
2023-04-13T18:17:41.701Z,3.53
2023-04-13T18:20:09.474Z,4.97
2023-04-13T18:22:36.965Z,5.00
2023-04-13T18:25:07.770Z,5.77
2023-04-13T18:27:36.269Z,5.57
2023-04-13T18:30:06.298Z,4.07
2023-04-13T18:32:33.373Z,8.30
2023-04-13T18:35:00.714Z,5.60
2023-04-13T18:37:27.737Z,6.30
2023-04-13T18:39:57.575Z,5.47
2023-04-13T18:42:25.763Z,6.33
2023-04-13T18:44:52.786Z,5.53
2023-04-13T18:47:23.895Z,5.87
2023-04-13T18:49:51.519Z,5.17
2023-04-13T18:52:18.799Z,5.53
2023-04-13T18:54:45.876Z,5.57
2023-04-13T18:57:13.405Z,7.13
2023-04-13T18:59:41.223Z,5.57
2023-04-13T19:02:08.528Z,9.53
2023-04-13T19:04:37.260Z,8.53
2023-04-13T19:07:08.671Z,6.87
2023-04-13T19:09:39.362Z,8.07
2023-04-13T19:12:07.677Z,5.63
2023-04-13T19:14:40.216Z,4.47
2023-04-13T19:17:07.389Z,4.50
2023-04-13T19:19:34.857Z,6.93
2023-04-13T19:22:03.355Z,6.87
2023-04-13T19:24:30.685Z,5.80
2023-04-13T19:26:57.786Z,6.43
2023-04-13T19:29:30.674Z,6.50
2023-04-13T19:31:58.401Z,5.23
2023-04-13T19:34:26.336Z,5.00
2023-04-13T19:36:59.787Z,5.40
2023-04-13T19:39:27.405Z,7.30
2023-04-13T19:41:57.921Z,4.73
2023-04-13T19:44:25.057Z,4.60
2023-04-13T19:46:53.869Z,4.87
2023-04-13T19:49:21.643Z,4.57
2023-04-13T19:51:50.178Z,5.53
2023-04-13T19:54:17.393Z,7.33
2023-04-13T19:56:46.384Z,6.20
2023-04-13T19:59:15.159Z,7.17
2023-04-13T20:01:47.210Z,5.30
2023-04-13T20:04:15.669Z,3.80
2023-04-13T20:06:50.233Z,2.80
2023-04-13T20:09:18.517Z,2.60
2023-04-13T20:11:46.772Z,3.23
2023-04-13T20:14:16.813Z,2.30
2023-04-13T20:16:45.942Z,2.83
2023-04-13T20:19:16.353Z,2.43
2023-04-13T20:21:46.696Z,4.70
2023-04-13T20:24:20.036Z,7.43
2023-04-13T20:26:58.900Z,13.57
2023-04-13T20:29:40.762Z,11.47
2023-04-13T20:32:36.248Z,14.40
2023-04-13T20:35:06.705Z,7.87
2023-04-13T20:37:40.426Z,5.97
2023-04-13T20:40:13.682Z,3.00
2023-04-13T20:42:45.644Z,2.93
2023-04-13T20:45:15.844Z,4.67
2023-04-13T20:47:42.944Z,2.97
2023-04-13T20:50:13.155Z,4.57
2023-04-13T20:52:43.297Z,3.20
2023-04-13T20:55:19.312Z,3.73
2023-04-13T20:58:17.223Z,3.70
2023-04-13T21:00:56.380Z,2.90
2023-04-13T21:03:23.899Z,18.23
2023-04-13T21:05:52.765Z,11.83
2023-04-13T21:08:21.153Z,6.83
2023-04-13T21:10:48.130Z,3.60
2023-04-13T21:13:16.285Z,3.63
2023-04-13T21:15:44.260Z,5.60
2023-04-13T21:18:11.604Z,4.47
2023-04-13T21:20:40.872Z,8.10
2023-04-13T21:23:08.286Z,13.37
2023-04-13T21:25:37.373Z,11.57
2023-04-13T21:28:04.833Z,12.90
2023-04-13T21:30:31.931Z,12.33
2023-04-13T21:32:59.514Z,10.03
2023-04-13T21:35:26.473Z,11.33
2023-04-13T21:37:54.642Z,7.43
2023-04-13T21:40:24.810Z,7.33
2023-04-13T21:42:51.930Z,6.27
2023-04-13T21:45:19.158Z,6.90
2023-04-13T21:47:47.178Z,6.97
2023-04-13T21:50:14.316Z,6.80
2023-04-13T21:52:41.868Z,6.63
2023-04-13T21:55:14.744Z,5.27
2023-04-13T21:57:41.660Z,5.47
2023-04-13T22:00:09.433Z,4.57
2023-04-13T22:02:39.366Z,4.80
2023-04-13T22:05:09.289Z,6.20
2023-04-13T22:07:42.924Z,8.77
2023-04-13T22:10:11.532Z,6.53
2023-04-13T22:12:38.711Z,6.60
2023-04-13T22:15:06.562Z,10.47
2023-04-13T22:17:33.580Z,10.03
2023-04-13T22:20:00.729Z,11.90
2023-04-13T22:22:27.785Z,14.90
2023-04-13T22:24:54.970Z,15.30
2023-04-13T22:27:22.242Z,23.53
2023-04-13T22:29:49.240Z,41.97
2023-04-13T22:32:16.793Z,30.40
2023-04-13T22:34:43.816Z,24.53
2023-04-13T22:37:12.306Z,21.63
2023-04-13T22:39:40.064Z,27.10
2023-04-13T22:42:06.999Z,25.03
2023-04-13T22:44:36.857Z,24.83
2023-04-13T22:47:04.638Z,29.40
2023-04-13T22:49:31.745Z,26.93
2023-04-13T22:52:00.297Z,48.57
2023-04-13T22:54:27.365Z,56.37
2023-04-13T22:56:54.311Z,42.33
2023-04-13T22:59:21.310Z,37.70
2023-04-13T23:01:48.342Z,39.00
2023-04-13T23:04:16.281Z,34.83
2023-04-13T23:06:43.550Z,35.07
2023-04-13T23:09:10.516Z,32.03
2023-04-13T23:11:37.863Z,22.63
2023-04-13T23:14:06.735Z,18.30
2023-04-13T23:16:34.545Z,15.90
2023-04-13T23:19:01.872Z,13.13
2023-04-13T23:21:29.308Z,10.33
2023-04-13T23:23:56.189Z,11.17
2023-04-13T23:26:23.308Z,10.70
2023-04-13T23:28:50.336Z,11.87
2023-04-13T23:31:17.417Z,10.43
2023-04-13T23:33:44.407Z,12.87
2023-04-13T23:36:11.760Z,18.63
2023-04-13T23:38:38.898Z,22.80
2023-04-13T23:41:05.938Z,22.73
2023-04-13T23:43:32.960Z,25.93
2023-04-13T23:46:00.034Z,31.53
2023-04-13T23:48:29.224Z,28.73
2023-04-13T23:50:57.334Z,21.70
2023-04-13T23:53:24.735Z,18.07
2023-04-13T23:55:52.242Z,16.63
2023-04-13T23:58:19.194Z,17.20
